Ride Results

Williams Valley Endurance Ride (29-03-2014)
Ride distance: 80.0 km

Outcomes - Williams Valley Endurance Ride (29-03-2014)
Division No. of Entries Retired / DNE Completed Withdrawn Ineligible V/O Percentage Completed
HW 12 - 7 2 - 3 58.33%
MW 20 - 13 3 - 4 65.00%
LW 7 - 6 1 - - 85.71%
JN 11 - 9 - - 2 81.82%
Totals 50 - 35 6 - 9 70.00%
Results - Williams Valley Endurance Ride (29-03-2014)
No. Rider Horse Place Time Leg Speeds Total
Km/Hr
H/R bpm
Heavyweight
21 Gary Pevy Burren-Dah Walter 1 (BC) 6:12:16 15.1, 10.8 12.89 34, 40, 52 (Avg:46)
32 Steve Brooks A'landell Pirate 2 8:03:00 11.6, 8.3 9.94 44, 46, 56 (Avg:51)
9 Scott Peters Sharahd Lateefa 3 8:07:00 9.8, 9.8 9.86 42, 46, 55 (Avg:50)
23 Nigel Colefax Evening Star 4 8:29:00 10.3, 8.4 9.43 36, 39, 42 (Avg:40)
25 Gary Thomas Ben Mariah 4 8:29:00 12.6, 7.0 9.43 37, 51, 58 (Avg:54)
15 Steve Broadbent Glendhu Moonshine 6 8:46:00 10.3, 7.9 9.13 40, 40, 51 (Avg:45)
41 Tony Warren Warren Park Kiara 7 9:40:00 9.1, 7.3 8.28 32, 48, 60 (Avg:54)
8 Thomas Hermann TTH Headliner Lame L2 0:00:00 13.1, 8.6 - 32, 41, 51 (Avg:46)
43 Sue Warren Lilonda Sharjah Heart Rate L2 0:00:00 9.1, 7.3 - 34, 47, 70 (Avg:58)
35 Jody Harrison Phoenix Withdrawn L1 0:00:00 - - 36, 47 (Avg:47)
7 Jack Johnson Sharahd Zh'Laan Heart Rate L1 0:00:00 9.8 - 46, 61 (Avg:61)
16 Marylou Locke Desert Dullers Aezure Withdrawn P/R 0:00:00 - - 39, 46 (Avg:46)
Middleweight
40 Karen Anderson Malleegrove Samsara 1 (BC) 6:51:00 15.4, 8.8 11.68 37, 47, 54 (Avg:50)
14 Darryl King Splitters Creek Red Vogue 2 7:18:00 13.3, 8.8 10.96 36, 43, 60 (Avg:51)
18 Ruth Van der Wegen Aloha Ameer 3 8:00:00 11.6, 8.4 10.00 29, 38, 42 (Avg:40)
29 Nicole Smith Skittles 4 8:04:00 9.5, 10.3 9.92 32, 38, 60 (Avg:49)
39 Peter Bice Georgie Girl 5 8:05:00 11.3, 8.5 9.90 35, 42, 47 (Avg:44)
1 Michael Cummins Aloha Vision 6 8:08:00 10.1, 9.5 9.84 32, 42, 53 (Avg:47)
24 Pamela Karner Garonne Park Diva 7 8:14:00 9.7, 9.6 9.72 39, 32, 47 (Avg:39)
19 Tom Bouzianis Conderosa Koukla 8 8:18:00 10.3, 8.8 9.64 45, 48, 58 (Avg:53)
26 Sharon Foster Sharabel Maleka 9 8:25:00 9.4, 9.5 9.50 34, 36, 51 (Avg:43)
3 Terry Wood Tallawarra Miracle 10 8:28:00 9.7, 9.0 9.45 38, 50, 49 (Avg:49)
47 Sonya Ruprecht Alex-Ville God Be Gift 11 8:29:00 10.6, 8.2 9.43 40, 39, 50 (Avg:44)
33 Rochelle Knihinicki Ky 12 8:48:00 9.9, 8.2 9.09 38, 40, 50 (Avg:45)
45 Allison Knihinicki Velona Amadi 12 8:48:00 9.9, 8.2 9.09 38, 50, 59 (Avg:54)
48 Elizabeth Moir Kenya s Gold Heart Rate L2 0:00:00 10.5, 8.7 - 32, 45, 68 (Avg:56)
44 Jennifer Caslick Sienna Kaptivating Withdrawn L1 0:00:00 - - 35, 47 (Avg:47)
10 Christopher Clarke Zastava Park Saruman Heart Rate L1 0:00:00 13.5 - 32, 60 (Avg:60)
20 Peter Kelly Ramalea Laila Withdrawn L1 0:00:00 - - 34, 53 (Avg:53)
22 Debbie Pevy Churinga Lite Mi Fire Heart Rate L1 0:00:00 15.1 - 33, 60 (Avg:60)
30 Sarah Ross New Kingston Lame L1 0:00:00 9.5 - 50, 44 (Avg:44)
46 Cheryl Strachan Kintamani Sapphire Withdrawn L1 0:00:00 - - 39, 40 (Avg:40)
Lightweight
17 Renee Schneider Badia Just Rosie 1 (BC) 6:12:18 15.4, 10.6 12.89 33, 42, 60 (Avg:51)
28 Patsy Trevor Shahfa 2 7:56:00 12.9, 7.8 10.08 31, 43, 47 (Avg:45)
31 Julie Brooks Aloha Byshara 3 8:03:00 11.6, 8.3 9.94 34, 46, 57 (Avg:51)
4 Alison Clark Pumba 4 8:07:00 11.3, 8.3 9.86 37, 43, 48 (Avg:45)
49 Melissa McCoullough Forbes View Sienna 5 8:29:00 10.5, 8.3 9.43 46, 52, 49 (Avg:50)
36 Katie Brown Horse Welfare Inc. Phoenix 6 8:36:00 9.5, 8.9 9.30 44, 48, 58 (Avg:53)
2 Cherry Cummins Winter Hill Alice Withdrawn L1 0:00:00 - - 44, 48 (Avg:48)
Junior
34 Georgia Curry Macquarie Park Banjo 1 (BC) 6:53:00 14.8, 9.0 11.62 36, 45, 50 (Avg:47)
37 Victoria Bice The Byzantine Diamonds 2 8:05:00 11.3, 8.5 9.90 34, 39, 44 (Avg:41)
38 Josephine Jansen Zulu's Dark Angel 2 8:05:00 11.3, 8.5 9.90 35, 43, 52 (Avg:47)
5 Jaimie Dekeyzer Sandy 4 8:11:00 11.3, 8.3 9.78 34, 46, 49 (Avg:47)
27 Modena Schofield-Foster Sharabel Akaysha 5 8:25:00 9.4, 9.5 9.50 33, 37, 48 (Avg:42)
42 Cybele Coddington Wanstead Abracadabra 6 8:56:00 9.3, 8.5 8.96 41, 39, 46 (Avg:42)
11 Makayla Circosta Ropa Park Bella Rastique 7 8:59:00 9.8, 7.9 8.91 35, 44, 54 (Avg:49)
12 Tenille Circosta Oscar 7 8:59:00 9.8, 7.9 8.91 36, 50, 53 (Avg:51)
13 Isabella Circosta Ropa Park Bella Shakila 7 8:59:00 9.8, 7.9 8.91 37, 37, 46 (Avg:41)
6 Rochelle Scheffler Jazz Lame L2 0:00:00 11.3, 8.3 - 52, 49, 52 (Avg:50)
50 Mia Bodewes Marvellus Lame L1 0:00:00 7.4 - 47, 49 (Avg:49)